Big Bear Station Historical Data
Daily Summary for April 4, 2019 Units:  Metric    English   Both
Next Day »
Daily Weekly Monthly Yearly Custom
  High: Low: Average:
Temperature: 10.8 °C 0.1 °C 4.5 °C
Dew Point: 3.3 °C -4.7 °C 0.3 °C
Humidity: 96% 52% 76%
Wind Speed: 13.4km/h 0km/h 3.9km/h
Wind Gust: -1607.7km/h - -
Wind- - WNW
Pressure: 795.4 hPa 792 hPa -
Precipitation: 0 mm    
Historical Graphs
 
 
Tabular Data for April 4, 2019
Time Temperature Dew Point Pressure Wind Wind Speed Wind Gust Humidity Rainfall Rate (Hourly)
00:05 0.9 °C -0.6 °C 795 hPa Calm   -1607.7 km/h 90% 0 mm
00:20 0.8 °C -0.4 °C 795.4 hPa Calm   -1607.7 km/h 92% 0 mm
00:36 0.7 °C -0.4 °C 795 hPa Calm   -1607.7 km/h 92% 0 mm
00:51 0.7 °C -0.7 °C 795 hPa Calm   -1607.7 km/h 90% 0 mm
01:06 0.8 °C -0.5 °C 795 hPa Calm   -1607.7 km/h 91% 0 mm
01:21 1.1 °C -0.2 °C 795 hPa Calm   -1607.7 km/h 91% 0 mm
01:36 1 °C -0.3 °C 795 hPa Calm   -1607.7 km/h 91% 0 mm
01:52 0.9 °C -0.3 °C 794.7 hPa Calm   -1607.7 km/h 92% 0 mm
02:07 0.8 °C -0.2 °C 794.7 hPa Calm   -1607.7 km/h 93% 0 mm
02:22 0.7 °C -0.1 °C 794.7 hPa Calm   -1607.7 km/h 94% 0 mm
02:37 0.6 °C -0.1 °C 794.4 hPa Calm   -1607.7 km/h 95% 0 mm
02:53 0.5 °C -0.1 °C 794 hPa Calm   -1607.7 km/h 96% 0 mm
03:08 0.4 °C -0.2 °C 794 hPa Calm   -1607.7 km/h 96% 0 mm
03:24 0.4 °C -0.2 °C 794 hPa Calm   -1607.7 km/h 96% 0 mm
03:39 0.3 °C -0.3 °C 794 hPa Calm   -1607.7 km/h 96% 0 mm
03:54 0.1 °C -0.7 °C 794 hPa Calm   -1607.7 km/h 94% 0 mm
04:12 1.2 °C -1 °C 793.7 hPa Calm   -1607.7 km/h 85% 0 mm
04:27 1.3 °C -1.3 °C 794 hPa Calm   -1607.7 km/h 83% 0 mm
04:42 1.9 °C -1.9 °C 793.7 hPa Calm   -1607.7 km/h 76% 0 mm
04:57 2.3 °C -2.1 °C 793.7 hPa Calm   -1607.7 km/h 73% 0 mm
05:12 2.8 °C -2.7 °C 793.7 hPa Calm   -1607.7 km/h 67% 0 mm
05:28 2.8 °C -2.9 °C 793.7 hPa Calm   -1607.7 km/h 66% 0 mm
05:43 2.8 °C -3.2 °C 793.7 hPa SSE 2.7 km/h -1607.7 km/h 65% 0 mm
05:58 2.8 °C -3.2 °C 793.7 hPa Calm   -1607.7 km/h 65% 0 mm
06:13 2.8 °C -3.3 °C 793.7 hPa Calm   -1607.7 km/h 64% 0 mm
06:28 2.8 °C -4.4 °C 793.7 hPa NW 6 km/h -1607.7 km/h 59% 0 mm
06:44 3 °C -4.7 °C 793.7 hPa NE 6 km/h -1607.7 km/h 57% 0 mm
06:59 3.3 °C -4.2 °C 793.7 hPa NW 5.1 km/h -1607.7 km/h 58% 0 mm
07:15 3.4 °C -3.9 °C 793.7 hPa North 5.1 km/h -1607.7 km/h 59% 0 mm
07:30 3.5 °C -3.1 °C 794 hPa NNW 9.3 km/h -1607.7 km/h 62% 0 mm
07:45 3.1 °C -2.6 °C 794 hPa NNE 3.5 km/h -1607.7 km/h 66% 0 mm
08:00 3.2 °C -2.1 °C 794 hPa NW 7.6 km/h -1607.7 km/h 68% 0 mm
08:15 3.5 °C -1.7 °C 794 hPa NNW 4.3 km/h -1607.7 km/h 69% 0 mm
08:31 3.4 °C -1.6 °C 794 hPa NNW 3.5 km/h -1607.7 km/h 70% 0 mm
08:46 4 °C -1 °C 794 hPa NW 7.6 km/h -1607.7 km/h 70% 0 mm
09:01 4.3 °C -0.1 °C 794 hPa NW 6 km/h -1607.7 km/h 73% 0 mm
09:16 3.4 °C 0.4 °C 794.4 hPa ESE 6 km/h -1607.7 km/h 81% 0 mm
09:31 3.9 °C 0.8 °C 794.4 hPa NNW 10.9 km/h -1607.7 km/h 80% 0 mm
09:47 3.6 °C 0.8 °C 794.4 hPa North 6.8 km/h -1607.7 km/h 82% 0 mm
10:02 4.2 °C 0.9 °C 794.4 hPa WNW 9.3 km/h -1607.7 km/h 79% 0 mm
10:17 4.9 °C 0.8 °C 794.7 hPa WNW 7.6 km/h -1607.7 km/h 75% 0 mm
10:33 5.8 °C 1.1 °C 794.4 hPa North 5.1 km/h -1607.7 km/h 72% 0 mm
10:48 6.9 °C 1.6 °C 794.7 hPa SSE 4.3 km/h -1607.7 km/h 69% 0 mm
11:03 7.5 °C 0.9 °C 794.4 hPa West 8.5 km/h -1607.7 km/h 63% 0 mm
11:18 8.6 °C 0.6 °C 794.4 hPa NNW 6 km/h -1607.7 km/h 57% 0 mm
11:33 9.3 °C 0.4 °C 794.4 hPa NW 10.9 km/h -1607.7 km/h 54% 0 mm
11:49 9.1 °C 1.1 °C 794.4 hPa NNW 10.1 km/h -1607.7 km/h 57% 0 mm
12:04 9.4 °C 1.8 °C 794 hPa WNW 8.5 km/h -1607.7 km/h 59% 0 mm
12:19 9.3 °C 1.7 °C 794 hPa WNW 9.3 km/h -1607.7 km/h 59% 0 mm
12:35 9.5 °C 0.7 °C 794.4 hPa NNW 6.8 km/h -1607.7 km/h 54% 0 mm
12:50 10.1 °C 0.7 °C 794 hPa NNW 3.5 km/h -1607.7 km/h 52% 0 mm
13:05 10.5 °C 1.1 °C 794 hPa WNW 12.6 km/h -1607.7 km/h 52% 0 mm
13:21 10.8 °C 1.6 °C 793.7 hPa NNW 10.1 km/h -1607.7 km/h 53% 0 mm
13:36 10.6 °C 1.4 °C 793.7 hPa NNW 9.3 km/h -1607.7 km/h 53% 0 mm
13:51 10.1 °C 2.2 °C 793.7 hPa NNW 5.1 km/h -1607.7 km/h 58% 0 mm
14:06 10.6 °C 2.7 °C 793.3 hPa NW 8.5 km/h -1607.7 km/h 58% 0 mm
14:21 10.1 °C 2.7 °C 793.3 hPa West 6.8 km/h -1607.7 km/h 60% 0 mm
14:37 10.8 °C 3.1 °C 793.3 hPa NW 10.1 km/h -1607.7 km/h 59% 0 mm
14:52 9.4 °C 3.3 °C 793 hPa NW 8.5 km/h -1607.7 km/h 66% 0 mm
15:07 8.6 °C 3.1 °C 793.3 hPa North 7.6 km/h -1607.7 km/h 68% 0 mm
15:22 8.9 °C 3.1 °C 793.3 hPa North 9.3 km/h -1607.7 km/h 67% 0 mm
15:37 8.9 °C 3.3 °C 793 hPa NW 8.5 km/h -1607.7 km/h 68% 0 mm
15:53 8.4 °C 2.8 °C 793 hPa WNW 8.5 km/h -1607.7 km/h 68% 0 mm
16:09 7.8 °C 2.8 °C 793 hPa West 8.5 km/h -1607.7 km/h 71% 0 mm
16:24 7.6 °C 2.7 °C 793 hPa NNW 9.3 km/h -1607.7 km/h 71% 0 mm
16:39 8.1 °C 2.3 °C 793 hPa West 13.4 km/h -1607.7 km/h 67% 0 mm
16:54 8.4 °C 2.8 °C 793 hPa NNW 7.6 km/h -1607.7 km/h 68% 0 mm
17:09 9.7 °C 2.6 °C 793 hPa West 4.3 km/h -1607.7 km/h 61% 0 mm
17:25 7.1 °C 2 °C 793 hPa South 5.1 km/h -1607.7 km/h 70% 0 mm
17:40 4.9 °C 1.4 °C 793 hPa ESE 2.7 km/h -1607.7 km/h 78% 0 mm
17:55 5.1 °C 1.4 °C 793 hPa Calm   -1607.7 km/h 77% 0 mm
18:10 4.5 °C 1.2 °C 793.3 hPa Calm   -1607.7 km/h 79% 0 mm
18:26 4.6 °C 1.3 °C 793 hPa West 3.5 km/h -1607.7 km/h 79% 0 mm
18:41 4.3 °C 0.9 °C 793 hPa NW 5.1 km/h -1607.7 km/h 79% 0 mm
18:56 4.1 °C 0.9 °C 793 hPa Calm   -1607.7 km/h 80% 0 mm
19:11 3.9 °C 1.1 °C 792.7 hPa South 6.8 km/h -1607.7 km/h 82% 0 mm
19:27 3.6 °C 1.3 °C 792.7 hPa Calm   -1607.7 km/h 85% 0 mm
19:42 3.6 °C 1.2 °C 792.7 hPa Calm   -1607.7 km/h 84% 0 mm
19:57 3.4 °C 1.1 °C 792.7 hPa Calm   -1607.7 km/h 85% 0 mm
20:12 3.3 °C 1 °C 792.7 hPa WNW 4.3 km/h -1607.7 km/h 85% 0 mm
20:27 3.3 °C 1.3 °C 792.3 hPa Calm   -1607.7 km/h 87% 0 mm
20:43 3.3 °C 1.3 °C 792.3 hPa Calm   -1607.7 km/h 87% 0 mm
20:58 3.2 °C 1.3 °C 792.3 hPa Calm   -1607.7 km/h 87% 0 mm
21:13 3.1 °C 1.3 °C 792.7 hPa Calm   -1607.7 km/h 88% 0 mm
21:28 3 °C 1.4 °C 792.7 hPa Calm   -1607.7 km/h 89% 0 mm
21:43 2.7 °C 1.4 °C 792.3 hPa NW 1.8 km/h -1607.7 km/h 91% 0 mm
21:59 2.4 °C 1.2 °C 792.7 hPa SW 3.5 km/h -1607.7 km/h 92% 0 mm
22:14 2.4 °C 1.5 °C 792.7 hPa Calm   -1607.7 km/h 94% 0 mm
22:29 2.4 °C 1.5 °C 792.7 hPa Calm   -1607.7 km/h 94% 0 mm
22:45 2.3 °C 1.3 °C 792.3 hPa Calm   -1607.7 km/h 93% 0 mm
23:00 2.2 °C 1.2 °C 792.3 hPa Calm   -1607.7 km/h 93% 0 mm
23:15 2 °C 0.8 °C 792 hPa Calm   -1607.7 km/h 92% 0 mm
23:30 2.3 °C 0.2 °C 792 hPa Calm   -1607.7 km/h 86% 0 mm
23:45 2.5 °C 0.1 °C 792 hPa NNW 6.8 km/h -1607.7 km/h 84% 0 mm
Big Bear CA Weather